Terminal Aerodrome Forecast
Issued by NWS

Home | Current Version | Previous Version | Text Only | Print | Product List | Glossary On
Versions: 1 2 3 4 5 6 7 8 9 10 11 12 13 14 15 16 17 18 19 20 21 22 23 24 25 26 27
000
FTPA31 PHFO 031700
TAFJHM
TAF
PHJH 031738Z 0318/0418 13006KT P6SM VCSH FEW020 SCT060 BKN100
     FM032000 29008KT P6SM VCSH SCT020 BKN060
     FM040500 09008KT P6SM FEW020 SCT060
      AMD NOT SKED AFT 040400=

USA.gov is the U.S. government's official web portal to all federal, state and local government web resources and services.